Phoenix, Arizona
Traffic Map
Current Weather Conditions
Phoenix, Arizona
Clear
Clear
85°
Feels Like: 85°
Wind Chill: 85° Ceiling: Unl
Heat Index: 85° Visibility: 10mi
Dew Point: 52° Wind: 3mph
Humidity: 32% Direction: 250° (WSW)
Pressure: 29.89in Gusts: 0mph
Raw Report DataKPHX 260351Z 25003KT 10SM CLR 29/11 A2989 RMK AO2 SLP106 T02940111
Traffic Incident Summary
Active as of:
Severity:
Category:
InformationThere was an issue retrieving the traffic information for this location. Please try a different location or try again shortly.
Advertisements
Track Severe Weather on mobile